Time;durP1;ratioP1;P1;durP2;ratioP2;P2;SDS_P1;SDS_P2;PMS_P1;PMS_P2;Temp;Humidity;BMP_temperature;BMP_pressure;BME280_temperature;BME280_humidity;BME280_pressure;Samples;Min_cycle;Max_cycle;Signal;HPM_P1;HPM_P2
2023/03/20 00:00:51;;;;;;;30.75;18.73;;;11.90;85.70;;;11.18;67.43;100874.00;5032644;28;20038;-81
2023/03/20 00:03:19;;;;;;;30.90;19.95;;;11.80;85.20;;;11.11;67.50;100878.50;5030142;28;20037;-82
2023/03/20 00:05:46;;;;;;;32.03;20.27;;;11.70;85.50;;;11.08;67.48;100873.59;5032331;28;20148;-79
2023/03/20 00:08:14;;;;;;;31.25;19.98;;;11.70;85.50;;;11.03;67.41;100870.72;5030564;28;20073;-81
2023/03/20 00:10:45;;;;;;;29.50;19.90;;;11.60;85.70;;;11.05;67.76;100877.50;5011741;28;20047;-82
2023/03/20 00:13:19;;;;;;;28.33;18.67;;;11.60;86.00;;;11.08;68.00;100889.63;5011002;28;20046;-79
2023/03/20 00:15:46;;;;;;;30.33;19.63;;;11.70;86.10;;;11.08;67.66;100900.28;5009950;28;20057;-81
2023/03/20 00:18:18;;;;;;;31.30;19.52;;;11.70;85.70;;;11.07;67.50;100894.09;5010308;28;20045;-80
2023/03/20 00:20:47;;;;;;;30.95;19.25;;;11.60;85.70;;;11.09;67.82;100891.25;5009382;28;20057;-79
2023/03/20 00:23:15;;;;;;;34.13;19.90;;;11.70;86.10;;;11.08;67.76;100894.97;5013556;28;20041;-82
2023/03/20 00:25:44;;;;;;;30.58;19.58;;;11.70;85.90;;;11.09;67.62;100888.59;5024819;28;20417;-79
2023/03/20 00:28:39;;;;;;;34.13;21.08;;;11.70;85.90;;;11.12;67.52;100893.50;5009970;28;20066;-81
2023/03/20 00:31:25;;;;;;;35.10;20.88;;;11.70;85.90;;;11.11;67.93;100889.19;4977312;28;20038;-80
2023/03/20 00:33:54;;;;;;;32.30;19.50;;;11.70;86.20;;;11.07;67.80;100893.28;5005834;28;20454;-80
2023/03/20 00:36:23;;;;;;;30.33;18.45;;;11.70;85.90;;;11.03;67.69;100902.75;5019105;28;20100;-81
2023/03/20 00:38:51;;;;;;;31.55;18.58;;;11.60;85.90;;;11.03;67.77;100910.75;5012028;28;20050;-81
2023/03/20 00:41:26;;;;;;;34.40;18.40;;;11.60;85.80;;;10.96;67.49;100917.91;5015371;28;20495;-80
2023/03/20 00:43:58;;;;;;;30.63;17.30;;;11.60;85.60;;;10.95;67.97;100909.09;5006255;28;20153;-83
2023/03/20 00:46:26;;;;;;;29.33;16.85;;;11.60;86.00;;;10.96;67.98;100905.41;4995104;28;20054;-79
2023/03/20 00:48:54;;;;;;;29.33;17.65;;;11.60;86.10;;;10.98;68.00;100907.84;5010582;28;20375;-81
2023/03/20 00:51:24;;;;;;;30.35;17.65;;;11.60;86.20;;;11.00;67.84;100909.31;4995532;28;20503;-81
2023/03/20 00:53:52;;;;;;;29.60;17.17;;;11.50;85.90;;;11.00;67.86;100901.28;4991678;28;20465;-81
2023/03/20 00:56:41;;;;;;;29.63;16.92;;;11.60;86.00;;;11.02;67.83;100901.09;5008847;28;20049;-80
2023/03/20 00:59:17;;;;;;;28.30;16.25;;;11.60;85.90;;;11.01;67.81;100892.25;5011006;28;20135;-81
2023/03/20 01:01:45;;;;;;;28.42;15.98;;;11.60;86.00;;;11.02;67.51;100888.56;4989773;28;20564;-80
2023/03/20 01:04:14;;;;;;;26.98;16.45;;;11.60;85.70;;;11.00;67.37;100876.47;5008814;28;20042;-81
2023/03/20 01:06:43;;;;;;;24.15;15.23;;;11.60;85.70;;;10.99;67.82;100880.16;5026473;28;20063;-80
2023/03/20 01:09:10;;;;;;;26.17;16.08;;;11.60;85.90;;;11.00;67.96;100889.81;5007985;28;20120;-79
2023/03/20 01:11:39;;;;;;;23.48;14.32;;;11.60;85.90;;;11.01;68.04;100889.59;5011764;28;20132;-80
2023/03/20 01:14:14;;;;;;;26.27;14.27;;;11.60;86.10;;;11.00;68.10;100900.47;4992025;28;20046;-83
2023/03/20 01:16:42;;;;;;;22.13;14.18;;;11.80;86.30;;;10.98;67.90;100881.16;4991976;28;20048;-80
2023/03/20 01:19:13;;;;;;;22.90;14.18;;;11.60;85.90;;;10.96;67.91;100888.56;5008290;28;20695;-81
2023/03/20 01:21:42;;;;;;;21.98;13.85;;;11.60;85.90;;;10.93;67.64;100894.28;4988107;28;20050;-80
2023/03/20 01:24:09;;;;;;;21.67;14.13;;;11.60;85.90;;;10.91;67.72;100893.69;5009244;28;20437;-81
2023/03/20 01:26:51;;;;;;;;;;;;;;;;;;;;;
2023/03/20 01:29:21;;;;;;;21.92;12.77;;;11.50;85.80;;;10.88;67.54;100891.41;4991157;28;20042;-81
2023/03/20 01:31:49;;;;;;;22.30;12.80;;;11.50;85.70;;;10.87;67.52;100884.44;5025833;28;20050;-79
2023/03/20 01:34:19;;;;;;;22.08;12.93;;;11.70;85.90;;;10.89;67.64;100885.91;5010020;28;20408;-79
2023/03/20 01:36:51;;;;;;;22.25;12.07;;;11.50;85.90;;;10.88;67.80;100878.06;4992451;28;20065;-82
2023/03/20 01:39:20;;;;;;;21.10;12.25;;;11.50;85.90;;;10.85;67.40;100889.16;5009645;28;20054;-79
2023/03/20 01:41:48;;;;;;;19.60;12.13;;;11.50;85.50;;;10.87;67.70;100884.44;4993687;28;20509;-81
2023/03/20 01:44:21;;;;;;;20.98;11.73;;;11.50;85.90;;;10.85;67.58;100887.31;5025916;28;20054;-80
2023/03/20 01:46:52;;;;;;;19.52;11.80;;;11.50;85.50;;;10.85;67.59;100887.31;5026474;28;20520;-81
2023/03/20 01:49:57;;;;;;;;;;;11.50;85.70;;;10.86;67.37;100888.13;4989035;28;20450;-79
2023/03/20 01:52:25;;;;;;;19.92;11.05;;;11.50;85.60;;;10.83;67.15;100887.53;5007400;28;19921;-80
2023/03/20 01:54:53;;;;;;;17.15;10.65;;;11.50;85.20;;;10.82;67.22;100887.72;5023127;28;20042;-79
2023/03/20 01:57:24;;;;;;;18.02;10.93;;;11.40;85.30;;;10.82;67.01;100874.38;5012400;28;20599;-80
2023/03/20 01:59:55;;;;;;;17.27;11.02;;;11.50;85.20;;;10.83;66.71;100862.66;4991311;28;20072;-79
2023/03/20 02:02:25;;;;;;;;;;;11.50;85.10;;;10.80;67.01;100866.59;4993331;28;20068;-79
2023/03/20 02:05:00;;;;;;;16.90;10.20;;;11.50;85.10;;;10.80;66.74;100877.25;4990308;28;19971;-80
2023/03/20 02:07:29;;;;;;;17.92;10.05;;;11.40;84.80;;;10.78;66.39;100879.31;4990615;28;20070;-81
2023/03/20 02:10:14;;;;;;;17.15;10.35;;;11.40;84.80;;;10.77;66.63;100887.50;4986754;28;20179;-81
2023/03/20 02:12:49;;;;;;;;;;;11.40;84.90;;;10.75;66.36;100879.72;4985157;28;20132;-81
2023/03/20 02:15:27;;;;;;;15.73;9.07;;;11.40;84.50;;;10.74;66.28;100886.06;4993029;28;19921;-79
2023/03/20 02:18:07;;;;;;;16.48;9.95;;;11.40;84.50;;;10.72;66.27;100890.78;5029565;28;20766;-79
2023/03/20 02:20:52;;;;;;;16.38;9.55;;;11.50;84.50;;;10.72;65.85;100903.28;4989403;28;20038;-80
2023/03/20 02:23:57;;;;;;;15.02;9.07;;;11.30;84.50;;;10.70;65.69;100900.84;5022466;28;20049;-80
2023/03/20 02:26:49;;;;;;;14.90;9.50;;;11.30;84.20;;;10.67;66.01;100890.56;5018630;28;20069;-84
2023/03/20 02:30:01;;;;;;;13.90;8.45;;;11.20;84.50;;;10.65;66.08;100895.28;5026482;28;20085;-80
2023/03/20 02:33:29;;;;;;;18.55;9.75;;;11.30;84.50;;;10.64;66.01;100880.31;5022304;28;20042;-80
2023/03/20 02:36:51;;;;;;;15.50;9.57;;;11.30;84.50;;;10.61;65.89;100878.03;5007370;28;20112;-82
2023/03/20 02:39:50;;;;;;;17.60;9.30;;;11.20;84.40;;;10.60;65.77;100889.72;4976478;28;20058;-82
2023/03/20 02:42:27;;;;;;;14.25;8.60;;;11.20;84.20;;;10.59;65.75;100885.41;4996207;28;20506;-81
2023/03/20 02:45:07;;;;;;;15.43;9.30;;;11.20;84.10;;;10.56;65.54;100894.63;4991689;28;20457;-80
2023/03/20 02:47:47;;;;;;;14.68;9.60;;;11.20;84.00;;;10.54;65.46;100882.50;5032255;28;20117;-79
2023/03/20 02:50:27;;;;;;;16.17;9.52;;;11.20;84.00;;;10.52;65.40;100895.22;5024551;28;20050;-79
2023/03/20 02:53:05;;;;;;;16.90;9.85;;;11.10;83.90;;;10.50;65.28;100908.78;4993535;28;20136;-79
2023/03/20 02:55:42;;;;;;;17.25;10.07;;;11.10;83.90;;;10.48;65.56;100908.13;5010739;28;20041;-80
2023/03/20 02:58:15;;;;;;;20.38;10.45;;;11.10;84.10;;;10.47;65.33;100903.84;5009701;28;20043;-80
2023/03/20 03:00:48;;;;;;;17.00;10.18;;;11.10;84.00;;;10.46;65.43;100899.53;5000057;28;20426;-80
2023/03/20 03:03:23;;;;;;;18.00;10.75;;;11.00;84.00;;;10.45;65.36;100905.88;4993258;28;20046;-82
2023/03/20 03:05:55;;;;;;;18.33;10.38;;;11.00;83.90;;;10.46;65.34;100906.69;5030576;28;20042;-80
2023/03/20 03:08:28;;;;;;;18.20;10.00;;;11.00;83.90;;;10.45;65.41;100902.41;4993084;28;20053;-82
2023/03/20 03:11:04;;;;;;;17.92;9.85;;;11.00;83.90;;;10.44;65.68;100896.25;5030379;28;20042;-83
2023/03/20 03:13:36;;;;;;;15.23;9.40;;;11.00;84.20;;;10.43;65.61;100902.56;5010520;28;20060;-80
2023/03/20 03:16:10;;;;;;;16.45;9.45;;;11.00;84.00;;;10.42;65.52;100910.78;5010576;28;20430;-80
2023/03/20 03:18:41;;;;;;;15.23;9.05;;;11.00;83.90;;;10.42;65.41;100921.44;4988795;28;20050;-80
2023/03/20 03:21:10;;;;;;;;;;;11.00;83.80;;;10.41;65.59;100893.16;5025515;28;20130;-79
2023/03/20 03:23:43;;;;;;;15.18;8.75;;;11.20;84.10;;;10.41;65.44;100887.81;5026838;28;19933;-80
2023/03/20 03:26:18;;;;;;;14.73;8.70;;;11.00;84.00;;;10.40;65.56;100883.50;5024988;28;20049;-82
2023/03/20 03:28:50;;;;;;;17.98;9.60;;;11.00;83.90;;;10.39;65.61;100880.00;5033320;28;20141;-80
2023/03/20 03:31:20;;;;;;;16.25;9.35;;;11.00;84.00;;;10.40;65.43;100879.00;5009591;28;20046;-81
2023/03/20 03:33:53;;;;;;;16.23;9.00;;;11.00;83.80;;;10.39;65.61;100863.19;5026249;28;20129;-80
2023/03/20 03:36:34;;;;;;;15.38;8.82;;;11.00;84.10;;;10.40;65.51;100851.50;5009883;28;20438;-80
2023/03/20 03:39:09;;;;;;;;;;;11.00;83.90;;;10.40;65.39;100840.84;5026536;28;20049;-83
2023/03/20 03:41:42;;;;;;;16.48;8.15;;;11.00;83.80;;;10.38;65.39;100834.88;4993497;28;19935;-79
2023/03/20 03:44:16;;;;;;;14.65;8.90;;;11.00;83.80;;;10.37;65.54;100838.56;5026079;28;20042;-82
2023/03/20 03:46:51;;;;;;;16.08;9.43;;;11.00;83.90;;;10.36;65.73;100853.75;4990728;28;20079;-80
2023/03/20 03:49:24;;;;;;;15.32;9.50;;;11.00;84.10;;;10.35;65.43;100853.97;5009147;28;20782;-80
2023/03/20 03:51:55;;;;;;;15.70;9.02;;;11.00;83.80;;;10.34;65.46;100868.28;4993311;28;20344;-82
2023/03/20 03:54:26;;;;;;;15.73;9.63;;;11.00;83.90;;;10.31;65.82;100866.88;4994102;28;21639;-81
2023/03/20 03:57:20;;;;;;;16.73;10.48;;;10.90;83.90;;;10.30;65.40;100870.56;5012388;28;20061;-80
2023/03/20 03:59:52;;;;;;;16.60;9.25;;;10.90;83.80;;;10.29;65.40;100879.56;4992810;28;20052;-81
2023/03/20 04:02:22;;;;;;;15.02;9.52;;;10.90;83.90;;;10.28;65.62;100875.25;5013804;28;20069;-78
2023/03/20 04:04:53;;;;;;;17.20;10.30;;;10.90;84.10;;;10.26;65.72;100890.63;5009137;28;20042;-80
2023/03/20 04:07:21;;;;;;;16.25;10.20;;;10.90;84.30;;;10.24;65.89;100890.81;4995413;28;20649;-79
2023/03/20 04:09:49;;;;;;;17.35;9.82;;;10.90;84.40;;;10.23;66.02;100894.47;5013613;28;20038;-80
2023/03/20 04:12:33;;;;;;;19.65;10.98;;;10.80;84.50;;;10.23;66.23;100891.81;5028244;28;20053;-80
2023/03/20 04:15:01;;;;;;;20.27;11.77;;;10.80;84.60;;;10.24;66.15;100895.31;4992835;28;20040;-79
2023/03/20 04:17:28;;;;;;;18.58;11.40;;;10.90;84.60;;;10.24;66.15;100895.31;4992502;28;20084;-82
2023/03/20 04:19:56;;;;;;;20.90;11.23;;;10.90;84.60;;;10.24;66.18;100897.97;4995439;28;20042;-82
2023/03/20 04:22:23;;;;;;;18.95;11.48;;;10.90;84.70;;;10.24;66.37;100892.66;4992399;28;20050;-81
2023/03/20 04:24:51;;;;;;;21.90;12.80;;;10.90;84.70;;;10.24;66.35;100877.47;5017211;28;20407;-80
2023/03/20 04:27:20;;;;;;;25.73;13.32;;;10.90;84.80;;;10.24;66.31;100874.81;4993367;28;20097;-80
2023/03/20 04:29:48;;;;;;;24.65;12.93;;;10.90;84.90;;;10.22;66.52;100871.50;4995438;28;20052;-81
2023/03/20 04:32:31;;;;;;;26.05;13.48;;;10.90;85.00;;;10.24;66.66;100861.50;4990664;28;20038;-79
2023/03/20 04:35:19;;;;;;;22.85;13.63;;;10.90;85.00;;;10.24;66.52;100858.81;5004713;28;20472;-81
2023/03/20 04:37:52;;;;;;;23.88;13.95;;;10.90;84.90;;;10.24;66.27;100860.66;4994032;28;20053;-81
2023/03/20 04:40:19;;;;;;;20.80;13.15;;;10.90;84.70;;;10.23;66.22;100864.31;5023487;28;20046;-79
2023/03/20 04:42:48;;;;;;;25.98;13.80;;;10.90;84.70;;;10.22;66.20;100860.03;5025212;28;20056;-81
2023/03/20 04:45:17;;;;;;;22.30;13.52;;;10.80;84.60;;;10.20;66.33;100860.22;4997352;28;20056;-80
2023/03/20 04:47:44;;;;;;;23.25;13.27;;;10.90;84.70;;;10.20;66.47;100864.72;4999478;28;20050;-79
2023/03/20 04:50:13;;;;;;;24.58;13.32;;;10.80;84.70;;;10.21;66.33;100851.22;4992016;28;20053;-80
2023/03/20 04:52:40;;;;;;;26.23;14.35;;;10.80;84.60;;;10.22;66.12;100842.19;4987796;28;20053;-81
2023/03/20 04:55:08;;;;;;;23.73;13.73;;;10.80;84.50;;;10.20;66.05;100838.91;4995486;28;20041;-81
2023/03/20 04:57:35;;;;;;;21.55;12.13;;;10.80;84.50;;;10.21;66.20;100842.41;5020114;28;20049;-80
2023/03/20 05:00:05;;;;;;;24.95;13.85;;;10.80;84.70;;;10.20;66.22;100838.91;5024910;28;20418;-78
2023/03/20 05:02:33;;;;;;;27.08;14.50;;;10.80;84.60;;;10.19;66.32;100836.41;5008343;28;20049;-82
2023/03/20 05:05:00;;;;;;;26.00;14.65;;;10.80;84.80;;;10.17;66.16;100833.16;5039518;28;20047;-82
2023/03/20 05:07:27;;;;;;;25.75;14.00;;;10.80;84.60;;;10.15;66.37;100838.69;5006237;28;20046;-80
2023/03/20 05:10:18;;;;;;;22.95;13.38;;;10.70;84.70;;;10.12;66.22;100839.06;5016441;28;20054;-78
2023/03/20 05:12:52;;;;;;;25.63;14.38;;;10.70;84.70;;;10.08;66.27;100835.16;4992204;28;20049;-81
2023/03/20 05:15:33;;;;;;;23.25;14.00;;;10.70;84.80;;;10.05;66.13;100841.72;4993510;28;20056;-78
2023/03/20 05:18:19;;;;;;;26.65;14.77;;;10.70;84.70;;;10.03;65.97;100851.75;5005592;28;20536;-77
2023/03/20 05:21:08;;;;;;;24.55;14.00;;;10.60;84.60;;;10.00;65.95;100846.81;4989729;28;20485;-80
2023/03/20 05:23:54;;;;;;;23.55;13.50;;;10.60;84.50;;;9.98;66.06;100854.19;5010311;28;20057;-80
2023/03/20 05:26:47;;;;;;;24.30;13.57;;;10.60;84.50;;;9.95;65.89;100851.06;4976039;28;20053;-79
2023/03/20 05:29:41;;;;;;;23.08;12.95;;;10.60;84.50;;;9.91;65.90;100857.84;4982596;28;20052;-82
2023/03/20 05:32:25;;;;;;;26.58;13.65;;;10.50;84.40;;;9.89;65.65;100857.19;5010053;28;20037;-83
2023/03/20 05:35:14;;;;;;;27.55;13.95;;;10.50;84.60;;;9.87;66.05;100864.59;5017353;28;20122;-80
2023/03/20 05:37:49;;;;;;;22.98;13.10;;;10.50;84.70;;;9.85;66.16;100869.25;4993008;28;20073;-80
2023/03/20 05:40:30;;;;;;;22.48;13.65;;;10.50;84.80;;;9.83;66.15;100866.00;5008852;28;20046;-81
2023/03/20 05:43:17;;;;;;;23.83;13.57;;;10.40;84.70;;;9.79;66.43;100863.69;5004604;28;20061;-77
2023/03/20 05:45:51;;;;;;;24.08;13.10;;;10.40;84.90;;;9.79;66.47;100869.03;5006389;28;20053;-79
2023/03/20 05:48:44;;;;;;;21.30;12.95;;;10.40;85.00;;;9.77;66.53;100865.75;5006982;28;20413;-79
2023/03/20 05:51:29;;;;;;;25.77;13.23;;;10.40;85.10;;;9.75;66.38;100865.13;4991883;28;20058;-78
2023/03/20 05:54:06;;;;;;;23.13;13.57;;;10.20;85.10;;;9.74;66.31;100870.66;4991166;28;20075;-79
2023/03/20 05:56:52;;;;;;;23.95;13.13;;;10.30;85.10;;;9.68;66.21;100872.25;4999334;28;20115;-78
2023/03/20 05:59:29;;;;;;;28.70;13.23;;;10.30;85.00;;;9.68;66.56;100866.94;5056442;22;20048;-83
2023/03/20 06:02:19;;;;;;;25.02;13.05;;;10.30;85.30;;;9.67;66.40;100861.81;5015487;28;20425;-81
2023/03/20 06:04:59;;;;;;;21.20;12.63;;;10.30;85.20;;;9.68;66.31;100866.94;5029039;28;20042;-79
2023/03/20 06:07:29;;;;;;;23.17;13.30;;;10.30;85.10;;;9.70;66.46;100877.38;5061384;28;20077;-78
2023/03/20 06:10:01;;;;;;;21.88;12.63;;;10.30;85.20;;;9.70;66.43;100861.41;5056679;28;20061;-80
2023/03/20 06:12:30;;;;;;;19.52;11.70;;;10.30;85.20;;;9.69;66.45;100857.91;5046523;28;21235;-80
2023/03/20 06:14:57;;;;;;;22.60;12.00;;;10.30;85.20;;;9.70;66.24;100850.75;5041705;28;20063;-81
2023/03/20 06:17:25;;;;;;;23.00;11.93;;;10.30;85.00;;;9.69;66.03;100863.25;5044517;28;20057;-80
2023/03/20 06:19:59;;;;;;;22.45;12.05;;;10.30;84.80;;;9.67;66.12;100865.28;5043883;28;20494;-82
2023/03/20 06:22:27;;;;;;;19.55;11.95;;;10.30;84.90;;;9.67;65.86;100865.28;5045754;28;20068;-81
2023/03/20 06:24:56;;;;;;;21.17;12.07;;;10.20;84.70;;;9.68;66.14;100874.91;5051032;28;20041;-80
2023/03/20 06:27:29;;;;;;;18.08;10.80;;;10.30;84.90;;;9.68;66.19;100882.91;5045481;28;20053;-79
2023/03/20 06:29:57;;;;;;;21.80;11.93;;;10.30;84.90;;;9.70;66.37;100880.03;5048725;28;20041;-80
2023/03/20 06:32:30;;;;;;;22.80;11.93;;;10.30;85.10;;;9.69;66.06;100873.06;5047458;28;20044;-81
2023/03/20 06:35:01;;;;;;;19.42;10.80;;;10.30;84.80;;;9.68;66.03;100877.59;5048094;28;20040;-78
2023/03/20 06:37:28;;;;;;;21.40;11.35;;;10.30;84.80;;;9.68;66.00;100877.59;5048850;28;20051;-83
2023/03/20 06:40:07;;;;;;;21.02;11.23;;;10.30;84.70;;;9.67;66.31;100883.94;5050029;28;20052;-83
2023/03/20 06:42:34;;;;;;;21.52;11.45;;;10.30;85.00;;;9.69;66.33;100889.88;5046762;28;20041;-78
2023/03/20 06:45:02;;;;;;;18.00;10.63;;;10.30;85.00;;;9.69;66.27;100889.88;5049721;28;20049;-79
2023/03/20 06:47:49;;;;;;;20.70;11.23;;;10.30;84.80;;;9.66;66.24;100890.28;5044515;28;20055;-80
2023/03/20 06:50:18;;;;;;;20.30;10.35;;;10.30;85.00;;;9.68;66.01;100888.22;5049038;28;20071;-79
2023/03/20 06:52:46;;;;;;;17.45;10.45;;;10.30;84.80;;;9.64;66.15;100902.94;5050536;28;20049;-79
2023/03/20 06:55:33;;;;;;;18.08;10.18;;;10.30;84.90;;;9.64;66.09;100908.28;5041639;28;20500;-83
2023/03/20 06:58:00;;;;;;;22.67;10.65;;;10.20;84.80;;;9.66;66.35;100910.72;5045635;28;20559;-81
2023/03/20 07:00:29;;;;;;;18.80;10.77;;;10.30;85.10;;;9.66;66.30;100914.25;5049695;28;20041;-82
2023/03/20 07:02:57;;;;;;;17.38;9.95;;;10.30;85.10;;;9.68;66.57;100914.88;5048383;28;20049;-80
2023/03/20 07:05:26;;;;;;;18.40;9.82;;;10.30;85.30;;;9.69;66.64;100905.84;5048403;28;20049;-80
2023/03/20 07:07:53;;;;;;;19.58;10.00;;;10.30;85.20;;;9.66;66.03;100902.75;5048693;28;20421;-79
2023/03/20 07:10:20;;;;;;;20.02;10.23;;;10.30;84.70;;;9.67;66.26;100912.41;5041198;28;20056;-83
2023/03/20 07:12:51;;;;;;;19.02;10.10;;;10.30;85.00;;;9.69;66.52;100915.69;5049859;28;20044;-80
2023/03/20 07:15:19;;;;;;;21.13;10.48;;;10.30;85.30;;;9.72;66.45;100918.78;5047657;28;20134;-81
2023/03/20 07:17:47;;;;;;;17.92;9.55;;;10.30;85.10;;;9.72;66.57;100918.78;5048713;28;20041;-80
2023/03/20 07:20:14;;;;;;;18.10;9.32;;;10.30;85.30;;;9.74;66.76;100924.72;5049240;28;20130;-81
2023/03/20 07:22:43;;;;;;;19.13;9.32;;;10.30;85.30;;;9.78;66.57;100925.19;5042731;28;20063;-81
2023/03/20 07:25:25;;;;;;;16.38;9.15;;;10.40;85.00;;;9.77;66.46;100908.38;5050308;28;20143;-80
2023/03/20 07:27:53;;;;;;;20.35;8.98;;;10.40;85.00;;;9.80;66.18;100910.63;5048037;28;20533;-80
2023/03/20 07:30:23;;;;;;;17.10;8.63;;;10.40;84.70;;;9.82;66.14;100913.13;5048731;28;20040;-81
2023/03/20 07:32:51;;;;;;;17.40;8.68;;;10.40;84.60;;;9.82;65.90;100920.28;5066224;28;20053;-82
2023/03/20 07:35:20;;;;;;;15.70;8.80;;;10.50;84.60;;;9.83;65.82;100920.09;5043127;28;20128;-82
2023/03/20 07:37:48;;;;;;;21.05;8.20;;;10.40;84.40;;;9.85;65.75;100928.69;5046714;28;20077;-80
2023/03/20 07:40:16;;;;;;;17.23;8.43;;;10.50;84.30;;;9.89;66.03;100926.47;5048737;28;20079;-79
2023/03/20 07:43:06;;;;;;;14.10;8.23;;;10.50;84.70;;;9.89;65.38;100929.13;5041334;28;20045;-81
2023/03/20 07:45:52;;;;;;;17.30;8.73;;;10.50;84.00;;;9.85;64.78;100925.22;5043165;28;20174;-78
2023/03/20 07:48:20;;;;;;;18.30;9.32;;;10.50;83.50;;;9.88;64.85;100927.50;5047345;28;20139;-80
2023/03/20 07:50:47;;;;;;;17.23;8.73;;;10.50;83.40;;;9.90;65.20;100931.59;5048897;28;20048;-80
2023/03/20 07:53:16;;;;;;;20.27;9.45;;;10.50;83.90;;;9.89;64.66;100940.59;5048951;28;20049;-80
2023/03/20 07:55:44;;;;;;;18.23;9.95;;;10.50;83.10;;;9.89;64.88;100943.28;5048455;28;20041;-80
2023/03/20 07:58:11;;;;;;;20.52;10.80;;;10.50;83.40;;;9.88;64.93;100936.31;5047964;28;20087;-81
2023/03/20 08:00:39;;;;;;;20.02;9.40;;;10.60;83.50;;;9.88;65.07;100941.63;5043134;28;20045;-82
2023/03/20 08:03:06;;;;;;;19.60;9.90;;;10.50;83.50;;;9.87;65.17;100937.34;5050524;28;20073;-81
2023/03/20 08:05:34;;;;;;;22.90;10.05;;;10.50;83.70;;;9.89;64.69;100942.47;5041742;28;20048;-77
2023/03/20 08:08:01;;;;;;;24.13;10.88;;;10.60;82.90;;;9.91;64.66;100948.44;5044831;28;20855;-77
2023/03/20 08:10:29;;;;;;;19.23;9.77;;;10.50;83.10;;;9.95;65.28;100941.66;5049366;28;20037;-78
2023/03/20 08:12:57;;;;;;;19.63;9.75;;;10.60;83.70;;;10.01;66.08;100946.25;5048043;28;20518;-80
2023/03/20 08:15:24;;;;;;;22.85;11.02;;;10.70;84.50;;;10.04;65.68;100943.16;5048850;28;20048;-78
2023/03/20 08:17:51;;;;;;;19.95;10.68;;;10.70;84.10;;;10.10;65.67;100957.53;5049002;28;20094;-79
2023/03/20 08:20:18;;;;;;;20.15;10.25;;;10.80;84.00;;;10.12;65.31;100953.69;5049822;28;20052;-79
2023/03/20 08:22:45;;;;;;;26.27;11.70;;;10.80;83.60;;;10.14;65.30;100959.63;5045328;28;20049;-79
2023/03/20 08:25:13;;;;;;;24.00;11.35;;;10.80;83.60;;;10.17;64.50;100953.09;5046764;28;20073;-81
2023/03/20 08:27:41;;;;;;;20.27;10.77;;;10.80;82.70;;;10.17;63.80;100955.75;5045408;28;20045;-83
2023/03/20 08:30:12;;;;;;;24.67;10.48;;;10.80;82.00;;;10.19;63.29;100964.38;5044056;28;20045;-78
2023/03/20 08:32:40;;;;;;;24.80;11.25;;;10.80;81.40;;;10.14;62.91;100956.94;5039096;28;20045;-78
2023/03/20 08:35:08;;;;;;;22.45;10.75;;;10.80;81.20;;;10.10;63.17;100955.69;5047840;28;20055;-77
2023/03/20 08:37:36;;;;;;;19.73;9.75;;;10.80;81.50;;;10.14;64.03;100954.28;5048444;28;20051;-81
2023/03/20 08:40:05;;;;;;;23.35;9.60;;;10.80;82.40;;;10.09;62.92;100964.72;5048694;28;20090;-77
2023/03/20 08:42:32;;;;;;;17.85;8.93;;;10.80;81.40;;;10.09;63.75;100959.38;5048228;28;20029;-79
2023/03/20 08:45:01;;;;;;;19.70;10.35;;;10.80;82.00;;;10.14;63.67;100956.13;5041872;28;20498;-77
2023/03/20 08:47:28;;;;;;;17.42;9.35;;;10.80;82.00;;;10.17;63.75;100963.75;5046356;28;20049;-79
2023/03/20 08:49:55;;;;;;;20.67;8.95;;;10.90;81.90;;;10.12;62.89;100958.19;5048922;28;20516;-77
2023/03/20 08:52:23;;;;;;;17.00;8.80;;;10.90;81.20;;;10.14;63.45;100959.63;5044596;28;20044;-78
2023/03/20 08:54:50;;;;;;;16.98;8.45;;;10.90;81.60;;;10.17;62.65;100945.91;5048027;28;20041;-80
2023/03/20 08:57:17;;;;;;;21.23;9.48;;;10.90;80.60;;;10.14;62.82;100946.28;5041871;28;20051;-81
2023/03/20 08:59:44;;;;;;;16.65;8.38;;;10.80;80.80;;;10.20;63.13;100950.00;5042129;28;20124;-79
2023/03/20 09:02:12;;;;;;;17.95;8.43;;;10.90;81.40;;;10.19;62.50;100949.19;5043712;28;20033;-79
2023/03/20 09:04:40;;;;;;;18.33;8.40;;;10.90;80.60;;;10.20;62.39;100940.19;5046691;28;20036;-78
2023/03/20 09:07:07;;;;;;;18.73;8.57;;;10.90;80.60;;;10.23;61.86;100944.28;5046459;28;20044;-79
2023/03/20 09:09:34;;;;;;;17.67;7.97;;;10.90;79.80;;;10.24;62.29;100949.44;5049221;28;20134;-80
2023/03/20 09:12:02;;;;;;;19.15;8.57;;;11.00;80.50;;;10.26;62.27;100942.09;5048814;28;20748;-79
2023/03/20 09:14:29;;;;;;;16.80;8.10;;;11.00;80.30;;;10.27;62.07;100943.75;5048334;28;20076;-80
2023/03/20 09:16:56;;;;;;;17.40;8.20;;;11.00;80.10;;;10.25;61.04;100953.78;5054232;28;20059;-82
2023/03/20 09:19:25;;;;;;;19.75;8.52;;;11.00;79.00;;;10.25;61.91;100953.78;5040895;28;20439;-78
2023/03/20 09:21:52;;;;;;;15.98;8.95;;;11.00;80.00;;;10.29;62.45;100944.34;5040758;28;20128;-80
2023/03/20 09:24:19;;;;;;;17.70;8.13;;;11.00;80.50;;;10.32;62.01;100948.47;5048909;28;20040;-81
2023/03/20 09:26:46;;;;;;;21.95;8.95;;;11.20;80.10;;;10.25;61.08;100937.78;5044415;28;20130;-80
2023/03/20 09:29:13;;;;;;;19.50;8.00;;;11.00;79.10;;;10.28;61.48;100944.56;5048715;28;20037;-82
2023/03/20 09:31:40;;;;;;;19.52;8.23;;;11.00;79.30;;;10.31;61.08;100953.00;5045579;28;20116;-80
2023/03/20 09:34:08;;;;;;;20.35;8.60;;;11.00;78.80;;;10.29;60.33;100954.19;5044360;28;20068;-78
2023/03/20 09:36:36;;;;;;;13.82;7.20;;;10.90;78.40;;;10.26;59.97;100944.75;5048200;28;20142;-81
2023/03/20 09:39:04;;;;;;;13.82;7.05;;;11.10;77.80;;;10.21;60.26;100947.16;5048834;28;20047;-79
2023/03/20 09:41:36;;;;;;;15.00;6.82;;;10.90;78.20;;;10.25;60.17;100950.31;5046003;28;20502;-80
2023/03/20 09:44:18;;;;;;;19.25;6.97;;;10.90;77.90;;;10.23;61.01;100947.78;5044619;28;20553;-78
2023/03/20 09:47:07;;;;;;;13.57;6.00;;;10.90;78.90;;;10.28;61.09;100950.72;5028408;28;20042;-79
2023/03/20 09:49:48;;;;;;;13.00;6.50;;;11.00;78.90;;;10.35;61.53;100952.59;5040159;28;20497;-80
2023/03/20 09:52:30;;;;;;;14.77;6.43;;;11.00;79.60;;;10.34;60.42;100945.59;5048636;28;20045;-79
2023/03/20 09:55:02;;;;;;;16.30;5.97;;;11.00;78.30;;;10.37;60.64;100953.22;5050777;28;20121;-79
2023/03/20 09:57:35;;;;;;;11.75;5.05;;;11.00;78.40;;;10.36;58.71;100949.75;5052423;28;20079;-81
2023/03/20 10:00:09;;;;;;;12.13;4.75;;;11.10;76.40;;;10.34;59.04;100951.75;5049779;28;20115;-81
2023/03/20 10:02:51;;;;;;;14.23;4.70;;;11.00;76.90;;;10.28;57.51;100952.56;5045815;28;20043;-79
2023/03/20 10:05:24;;;;;;;14.13;4.05;;;11.00;75.10;;;10.28;57.78;100957.88;5052965;28;20149;-81
2023/03/20 10:07:56;;;;;;;11.40;3.97;;;11.00;75.50;;;10.29;57.60;100957.69;5051210;28;20044;-82
2023/03/20 10:10:34;;;;;;;13.13;4.45;;;11.00;75.10;;;10.30;57.39;100962.00;5051994;28;20122;-79
2023/03/20 10:13:24;;;;;;;11.00;3.38;;;11.00;75.10;;;10.26;56.99;100958.09;5052740;28;20056;-79
2023/03/20 10:16:00;;;;;;;10.48;3.28;;;11.00;74.60;;;10.29;57.06;100955.00;5048856;28;20040;-81
2023/03/20 10:18:29;;;;;;;11.65;3.30;;;11.00;74.80;;;10.35;58.22;100952.59;5049475;28;20059;-79
2023/03/20 10:21:04;;;;;;;11.05;2.90;;;11.10;76.00;;;10.33;57.93;100952.78;5051859;28;20080;-79
2023/03/20 10:23:41;;;;;;;12.27;3.20;;;11.10;75.40;;;10.40;57.60;100950.16;5051714;28;20056;-79
2023/03/20 10:26:13;;;;;;;7.97;2.88;;;11.10;75.10;;;10.42;56.31;100956.13;5051556;28;20744;-81
2023/03/20 10:28:46;;;;;;;12.13;3.10;;;11.10;73.70;;;10.42;55.30;100942.78;5049881;28;20044;-78
2023/03/20 10:31:29;;;;;;;9.52;3.25;;;11.10;72.50;;;10.40;55.02;100945.66;5047913;28;20143;-77
2023/03/20 10:34:16;;;;;;;10.13;2.65;;;11.10;72.30;;;10.40;56.57;100945.66;5051321;28;20179;-80